Amity, Georgia
Current Conditions -  °F | °C
As of 12:35 PM on Tuesday 21 Oct 2014 (Local Time) from KHQU Reporting Station
Clear Clear  
Wind Chill: 74°   Ceiling: Unl
Heat Index: 74°   Visibility: 10mi
Dew Point: 58°   Wind: 6mph
Humidity: 59%   Direction: 310°NW
Pressure: 30.03"   Gusts: NA
Location:  33.7816°N, 82.4511°W
Report Text: KHQU 211635Z AUTO 31005KT 10SM CLR 23/15 A3003 RMK AO1 T02310147
Loading
Personal Weather Stations






























Interactive Weather Map
Tropical Storm Tracking
New forecast layout! Learn more

10-Day Weather Forecast

Advertisements
Track Severe Weather on mobile